sensor_id;sensor_type;location;lat;lon;timestamp;P1;P2;P0
72793;PMS5003;63436;26.334;50.194;2023-02-13T00:04:03;98;98;
72793;PMS5003;63436;26.334;50.194;2023-02-13T00:06:29;98;95;
72793;PMS5003;63436;26.334;50.194;2023-02-13T00:08:54;100;94;
72793;PMS5003;63436;26.334;50.194;2023-02-13T00:11:19;103;98;
72793;PMS5003;63436;26.334;50.194;2023-02-13T00:13:44;97;92;
72793;PMS5003;63436;26.334;50.194;2023-02-13T00:16:10;108;99;
72793;PMS5003;63436;26.334;50.194;2023-02-13T00:18:36;106;102;
72793;PMS5003;63436;26.334;50.194;2023-02-13T00:21:03;107;103;
72793;PMS5003;63436;26.334;50.194;2023-02-13T00:23:29;108;103;
72793;PMS5003;63436;26.334;50.194;2023-02-13T00:25:53;104;101;
72793;PMS5003;63436;26.334;50.194;2023-02-13T00:28:21;106;105;
72793;PMS5003;63436;26.334;50.194;2023-02-13T00:30:49;111;104;
72793;PMS5003;63436;26.334;50.194;2023-02-13T00:33:10;112;108;
72793;PMS5003;63436;26.334;50.194;2023-02-13T00:35:35;122;118;
72793;PMS5003;63436;26.334;50.194;2023-02-13T00:38:01;109;101;
72793;PMS5003;63436;26.334;50.194;2023-02-13T00:40:26;110;106;
72793;PMS5003;63436;26.334;50.194;2023-02-13T00:42:52;107;102;
72793;PMS5003;63436;26.334;50.194;2023-02-13T00:45:18;106;102;
72793;PMS5003;63436;26.334;50.194;2023-02-13T00:47:43;108;107;
72793;PMS5003;63436;26.334;50.194;2023-02-13T00:50:08;106;104;
72793;PMS5003;63436;26.334;50.194;2023-02-13T00:52:34;115;114;
72793;PMS5003;63436;26.334;50.194;2023-02-13T00:54:59;113;110;
72793;PMS5003;63436;26.334;50.194;2023-02-13T00:57:25;110;108;
72793;PMS5003;63436;26.334;50.194;2023-02-13T00:59:51;116;109;
72793;PMS5003;63436;26.334;50.194;2023-02-13T01:02:16;119;113;
72793;PMS5003;63436;26.334;50.194;2023-02-13T01:04:41;114;110;
72793;PMS5003;63436;26.334;50.194;2023-02-13T01:09:33;130;128;
72793;PMS5003;63436;26.334;50.194;2023-02-13T01:11:58;128;126;
72793;PMS5003;63436;26.334;50.194;2023-02-13T01:14:24;130;128;
72793;PMS5003;63436;26.334;50.194;2023-02-13T01:16:49;129;123;
72793;PMS5003;63436;26.334;50.194;2023-02-13T01:19:16;130;119;
72793;PMS5003;63436;26.334;50.194;2023-02-13T01:21:42;131;129;
72793;PMS5003;63436;26.334;50.194;2023-02-13T01:24:07;135;129;
72793;PMS5003;63436;26.334;50.194;2023-02-13T01:26:33;132;130;
72793;PMS5003;63436;26.334;50.194;2023-02-13T01:28:59;138;137;
72793;PMS5003;63436;26.334;50.194;2023-02-13T01:31:23;132;128;
72793;PMS5003;63436;26.334;50.194;2023-02-13T01:33:49;147;141;
72793;PMS5003;63436;26.334;50.194;2023-02-13T01:36:16;139;132;
72793;PMS5003;63436;26.334;50.194;2023-02-13T01:38:40;140;133;
72793;PMS5003;63436;26.334;50.194;2023-02-13T01:41:05;143;140;
72793;PMS5003;63436;26.334;50.194;2023-02-13T01:45:56;149;143;
72793;PMS5003;63436;26.334;50.194;2023-02-13T01:48:22;147;147;
72793;PMS5003;63436;26.334;50.194;2023-02-13T01:50:47;145;141;
72793;PMS5003;63436;26.334;50.194;2023-02-13T01:53:15;141;138;
72793;PMS5003;63436;26.334;50.194;2023-02-13T01:55:44;146;142;
72793;PMS5003;63436;26.334;50.194;2023-02-13T01:58:05;147;141;
72793;PMS5003;63436;26.334;50.194;2023-02-13T02:00:28;152;152;
72793;PMS5003;63436;26.334;50.194;2023-02-13T02:02:55;150;146;
72793;PMS5003;63436;26.334;50.194;2023-02-13T02:05:20;160;157;
72793;PMS5003;63436;26.334;50.194;2023-02-13T02:07:45;163;161;
72793;PMS5003;63436;26.334;50.194;2023-02-13T02:10:13;151;147;
72793;PMS5003;63436;26.334;50.194;2023-02-13T02:12:36;160;158;
72793;PMS5003;63436;26.334;50.194;2023-02-13T02:15:02;164;161;
72793;PMS5003;63436;26.334;50.194;2023-02-13T02:17:30;156;151;
72793;PMS5003;63436;26.334;50.194;2023-02-13T02:19:53;156;153;
72793;PMS5003;63436;26.334;50.194;2023-02-13T02:27:15;163;157;
72793;PMS5003;63436;26.334;50.194;2023-02-13T02:29:46;158;152;
72793;PMS5003;63436;26.334;50.194;2023-02-13T02:32:03;150;148;
72793;PMS5003;63436;26.334;50.194;2023-02-13T02:34:26;166;163;
72793;PMS5003;63436;26.334;50.194;2023-02-13T02:37:00;157;154;
72793;PMS5003;63436;26.334;50.194;2023-02-13T02:39:18;157;155;
72793;PMS5003;63436;26.334;50.194;2023-02-13T02:41:45;159;157;
72793;PMS5003;63436;26.334;50.194;2023-02-13T02:44:09;164;160;
72793;PMS5003;63436;26.334;50.194;2023-02-13T02:46:32;164;162;
72793;PMS5003;63436;26.334;50.194;2023-02-13T02:49:00;159;157;
72793;PMS5003;63436;26.334;50.194;2023-02-13T02:51:23;166;165;
72793;PMS5003;63436;26.334;50.194;2023-02-13T02:53:50;162;160;
72793;PMS5003;63436;26.334;50.194;2023-02-13T02:56:16;167;163;
72793;PMS5003;63436;26.334;50.194;2023-02-13T02:58:41;163;161;
72793;PMS5003;63436;26.334;50.194;2023-02-13T03:01:07;161;158;
72793;PMS5003;63436;26.334;50.194;2023-02-13T03:03:31;167;163;
72793;PMS5003;63436;26.334;50.194;2023-02-13T03:05:58;160;158;
72793;PMS5003;63436;26.334;50.194;2023-02-13T03:08:22;174;173;
72793;PMS5003;63436;26.334;50.194;2023-02-13T03:10:53;167;160;
72793;PMS5003;63436;26.334;50.194;2023-02-13T03:13:16;173;166;
72793;PMS5003;63436;26.334;50.194;2023-02-13T03:15:40;167;165;
72793;PMS5003;63436;26.334;50.194;2023-02-13T03:18:05;170;164;
72793;PMS5003;63436;26.334;50.194;2023-02-13T03:20:32;172;165;
72793;PMS5003;63436;26.334;50.194;2023-02-13T03:22:59;187;171;
72793;PMS5003;63436;26.334;50.194;2023-02-13T03:25:28;160;159;
72793;PMS5003;63436;26.334;50.194;2023-02-13T03:27:53;170;170;
72793;PMS5003;63436;26.334;50.194;2023-02-13T03:30:20;173;168;
72793;PMS5003;63436;26.334;50.194;2023-02-13T03:32:45;176;174;
72793;PMS5003;63436;26.334;50.194;2023-02-13T03:35:11;173;165;
72793;PMS5003;63436;26.334;50.194;2023-02-13T03:37:29;163;157;
72793;PMS5003;63436;26.334;50.194;2023-02-13T03:39:57;181;179;
72793;PMS5003;63436;26.334;50.194;2023-02-13T03:42:21;167;162;
72793;PMS5003;63436;26.334;50.194;2023-02-13T03:44:52;181;171;
72793;PMS5003;63436;26.334;50.194;2023-02-13T03:47:11;181;175;
72793;PMS5003;63436;26.334;50.194;2023-02-13T03:49:37;168;166;
72793;PMS5003;63436;26.334;50.194;2023-02-13T03:52:04;168;163;
72793;PMS5003;63436;26.334;50.194;2023-02-13T03:54:29;170;164;
72793;PMS5003;63436;26.334;50.194;2023-02-13T03:56:52;175;170;
72793;PMS5003;63436;26.334;50.194;2023-02-13T03:59:19;178;174;
72793;PMS5003;63436;26.334;50.194;2023-02-13T04:01:45;168;168;
72793;PMS5003;63436;26.334;50.194;2023-02-13T04:04:11;168;164;
72793;PMS5003;63436;26.334;50.194;2023-02-13T04:06:35;171;168;
72793;PMS5003;63436;26.334;50.194;2023-02-13T04:09:00;170;163;
72793;PMS5003;63436;26.334;50.194;2023-02-13T04:11:32;166;163;
72793;PMS5003;63436;26.334;50.194;2023-02-13T04:13:53;179;178;
72793;PMS5003;63436;26.334;50.194;2023-02-13T04:16:18;181;177;
72793;PMS5003;63436;26.334;50.194;2023-02-13T04:18:48;184;181;
72793;PMS5003;63436;26.334;50.194;2023-02-13T04:21:09;176;175;
72793;PMS5003;63436;26.334;50.194;2023-02-13T04:23:34;184;181;
72793;PMS5003;63436;26.334;50.194;2023-02-13T04:26:01;185;184;
72793;PMS5003;63436;26.334;50.194;2023-02-13T04:28:25;186;183;
72793;PMS5003;63436;26.334;50.194;2023-02-13T04:30:50;177;171;
72793;PMS5003;63436;26.334;50.194;2023-02-13T04:33:15;171;168;
72793;PMS5003;63436;26.334;50.194;2023-02-13T04:35:41;184;180;
72793;PMS5003;63436;26.334;50.194;2023-02-13T04:38:06;178;174;
72793;PMS5003;63436;26.334;50.194;2023-02-13T04:40:32;182;180;
72793;PMS5003;63436;26.334;50.194;2023-02-13T04:42:57;181;175;
72793;PMS5003;63436;26.334;50.194;2023-02-13T04:45:22;182;171;
72793;PMS5003;63436;26.334;50.194;2023-02-13T04:47:50;183;178;
72793;PMS5003;63436;26.334;50.194;2023-02-13T04:50:13;181;174;
72793;PMS5003;63436;26.334;50.194;2023-02-13T04:52:38;168;165;
72793;PMS5003;63436;26.334;50.194;2023-02-13T04:55:03;182;178;
72793;PMS5003;63436;26.334;50.194;2023-02-13T04:57:28;173;169;
72793;PMS5003;63436;26.334;50.194;2023-02-13T04:59:54;166;162;
72793;PMS5003;63436;26.334;50.194;2023-02-13T05:02:20;165;160;
72793;PMS5003;63436;26.334;50.194;2023-02-13T05:04:45;160;159;
72793;PMS5003;63436;26.334;50.194;2023-02-13T05:07:11;166;164;
72793;PMS5003;63436;26.334;50.194;2023-02-13T05:09:37;172;165;
72793;PMS5003;63436;26.334;50.194;2023-02-13T05:12:02;176;171;
72793;PMS5003;63436;26.334;50.194;2023-02-13T05:14:27;167;165;
72793;PMS5003;63436;26.334;50.194;2023-02-13T05:16:53;163;158;
72793;PMS5003;63436;26.334;50.194;2023-02-13T05:19:18;167;165;
72793;PMS5003;63436;26.334;50.194;2023-02-13T05:21:43;162;157;
72793;PMS5003;63436;26.334;50.194;2023-02-13T05:24:09;166;162;
72793;PMS5003;63436;26.334;50.194;2023-02-13T05:26:33;166;161;
72793;PMS5003;63436;26.334;50.194;2023-02-13T05:28:59;173;168;
72793;PMS5003;63436;26.334;50.194;2023-02-13T05:31:25;166;163;
72793;PMS5003;63436;26.334;50.194;2023-02-13T05:33:50;175;171;
72793;PMS5003;63436;26.334;50.194;2023-02-13T05:36:16;169;167;
72793;PMS5003;63436;26.334;50.194;2023-02-13T05:38:43;172;167;
72793;PMS5003;63436;26.334;50.194;2023-02-13T05:41:07;161;160;
72793;PMS5003;63436;26.334;50.194;2023-02-13T05:43:33;160;157;
72793;PMS5003;63436;26.334;50.194;2023-02-13T05:46:00;155;146;
72793;PMS5003;63436;26.334;50.194;2023-02-13T05:48:24;148;145;
72793;PMS5003;63436;26.334;50.194;2023-02-13T05:50:50;150;143;
72793;PMS5003;63436;26.334;50.194;2023-02-13T05:53:15;150;145;
72793;PMS5003;63436;26.334;50.194;2023-02-13T05:55:40;136;132;
72793;PMS5003;63436;26.334;50.194;2023-02-13T05:58:05;142;131;
72793;PMS5003;63436;26.334;50.194;2023-02-13T06:00:31;131;125;
72793;PMS5003;63436;26.334;50.194;2023-02-13T06:02:56;132;131;
72793;PMS5003;63436;26.334;50.194;2023-02-13T06:05:22;146;135;
72793;PMS5003;63436;26.334;50.194;2023-02-13T06:07:47;137;133;
72793;PMS5003;63436;26.334;50.194;2023-02-13T06:10:13;141;132;
72793;PMS5003;63436;26.334;50.194;2023-02-13T06:12:38;149;137;
72793;PMS5003;63436;26.334;50.194;2023-02-13T06:15:05;134;128;
72793;PMS5003;63436;26.334;50.194;2023-02-13T06:17:30;122;120;
72793;PMS5003;63436;26.334;50.194;2023-02-13T06:19:55;126;122;
72793;PMS5003;63436;26.334;50.194;2023-02-13T06:22:21;130;125;
72793;PMS5003;63436;26.334;50.194;2023-02-13T06:24:46;122;115;
72793;PMS5003;63436;26.334;50.194;2023-02-13T06:27:12;128;118;
72793;PMS5003;63436;26.334;50.194;2023-02-13T06:29:38;125;119;
72793;PMS5003;63436;26.334;50.194;2023-02-13T06:32:03;122;114;
72793;PMS5003;63436;26.334;50.194;2023-02-13T06:34:29;125;118;
72793;PMS5003;63436;26.334;50.194;2023-02-13T06:36:54;120;118;
72793;PMS5003;63436;26.334;50.194;2023-02-13T06:39:19;121;116;
72793;PMS5003;63436;26.334;50.194;2023-02-13T06:41:45;113;107;
72793;PMS5003;63436;26.334;50.194;2023-02-13T06:44:10;120;109;
72793;PMS5003;63436;26.334;50.194;2023-02-13T06:46:36;105;104;
72793;PMS5003;63436;26.334;50.194;2023-02-13T06:49:02;111;98;
72793;PMS5003;63436;26.334;50.194;2023-02-13T06:51:28;114;109;
72793;PMS5003;63436;26.334;50.194;2023-02-13T06:53:53;111;104;
72793;PMS5003;63436;26.334;50.194;2023-02-13T06:56:18;106;101;
72793;PMS5003;63436;26.334;50.194;2023-02-13T06:58:45;107;101;
72793;PMS5003;63436;26.334;50.194;2023-02-13T07:01:09;108;104;
72793;PMS5003;63436;26.334;50.194;2023-02-13T07:03:35;96;89;
72793;PMS5003;63436;26.334;50.194;2023-02-13T07:06:01;100;92;
72793;PMS5003;63436;26.334;50.194;2023-02-13T07:08:26;91;86;
72793;PMS5003;63436;26.334;50.194;2023-02-13T07:10:51;91;85;
72793;PMS5003;63436;26.334;50.194;2023-02-13T07:13:17;93;89;
72793;PMS5003;63436;26.334;50.194;2023-02-13T07:15:42;92;86;
72793;PMS5003;63436;26.334;50.194;2023-02-13T07:18:08;100;88;
72793;PMS5003;63436;26.334;50.194;2023-02-13T07:20:35;105;90;
72793;PMS5003;63436;26.334;50.194;2023-02-13T07:22:58;94;87;
72793;PMS5003;63436;26.334;50.194;2023-02-13T07:25:24;86;78;
72793;PMS5003;63436;26.334;50.194;2023-02-13T07:27:49;79;72;
72793;PMS5003;63436;26.334;50.194;2023-02-13T07:30:14;76;72;
72793;PMS5003;63436;26.334;50.194;2023-02-13T07:32:39;80;72;
72793;PMS5003;63436;26.334;50.194;2023-02-13T07:35:06;89;75;
72793;PMS5003;63436;26.334;50.194;2023-02-13T07:37:30;78;72;
72793;PMS5003;63436;26.334;50.194;2023-02-13T07:39:56;78;69;
72793;PMS5003;63436;26.334;50.194;2023-02-13T07:42:22;79;65;
72793;PMS5003;63436;26.334;50.194;2023-02-13T07:44:47;77;70;
72793;PMS5003;63436;26.334;50.194;2023-02-13T07:47:12;83;69;
72793;PMS5003;63436;26.334;50.194;2023-02-13T07:49:39;85;72;
72793;PMS5003;63436;26.334;50.194;2023-02-13T07:52:04;76;68;
72793;PMS5003;63436;26.334;50.194;2023-02-13T07:54:29;69;64;
72793;PMS5003;63436;26.334;50.194;2023-02-13T07:56:54;88;76;
72793;PMS5003;63436;26.334;50.194;2023-02-13T07:59:19;74;70;
72793;PMS5003;63436;26.334;50.194;2023-02-13T08:01:45;85;72;
72793;PMS5003;63436;26.334;50.194;2023-02-13T08:04:10;76;67;
72793;PMS5003;63436;26.334;50.194;2023-02-13T08:06:37;79;71;
72793;PMS5003;63436;26.334;50.194;2023-02-13T08:09:00;82;67;
72793;PMS5003;63436;26.334;50.194;2023-02-13T08:11:27;86;73;
72793;PMS5003;63436;26.334;50.194;2023-02-13T08:13:51;86;75;
72793;PMS5003;63436;26.334;50.194;2023-02-13T08:16:16;88;75;
72793;PMS5003;63436;26.334;50.194;2023-02-13T08:18:42;79;70;
72793;PMS5003;63436;26.334;50.194;2023-02-13T08:21:07;89;79;
72793;PMS5003;63436;26.334;50.194;2023-02-13T08:23:33;76;71;
72793;PMS5003;63436;26.334;50.194;2023-02-13T08:25:59;89;77;
72793;PMS5003;63436;26.334;50.194;2023-02-13T08:28:23;89;78;
72793;PMS5003;63436;26.334;50.194;2023-02-13T08:30:49;96;77;
72793;PMS5003;63436;26.334;50.194;2023-02-13T08:33:15;89;79;
72793;PMS5003;63436;26.334;50.194;2023-02-13T08:35:40;87;72;
72793;PMS5003;63436;26.334;50.194;2023-02-13T08:38:05;81;71;
72793;PMS5003;63436;26.334;50.194;2023-02-13T08:40:32;82;72;
72793;PMS5003;63436;26.334;50.194;2023-02-13T08:42:58;80;73;
72793;PMS5003;63436;26.334;50.194;2023-02-13T08:45:21;90;80;
72793;PMS5003;63436;26.334;50.194;2023-02-13T08:47:47;85;72;
72793;PMS5003;63436;26.334;50.194;2023-02-13T08:50:12;82;73;
72793;PMS5003;63436;26.334;50.194;2023-02-13T08:52:38;78;70;
72793;PMS5003;63436;26.334;50.194;2023-02-13T08:55:03;89;74;
72793;PMS5003;63436;26.334;50.194;2023-02-13T08:57:29;86;70;
72793;PMS5003;63436;26.334;50.194;2023-02-13T08:59:54;75;66;
72793;PMS5003;63436;26.334;50.194;2023-02-13T09:02:20;88;74;
72793;PMS5003;63436;26.334;50.194;2023-02-13T09:04:45;94;85;
72793;PMS5003;63436;26.334;50.194;2023-02-13T09:07:11;99;93;
72793;PMS5003;63436;26.334;50.194;2023-02-13T09:09:36;106;99;
72793;PMS5003;63436;26.334;50.194;2023-02-13T09:12:02;111;101;
72793;PMS5003;63436;26.334;50.194;2023-02-13T09:14:27;103;100;
72793;PMS5003;63436;26.334;50.194;2023-02-13T09:16:54;106;100;
72793;PMS5003;63436;26.334;50.194;2023-02-13T09:19:18;113;107;
72793;PMS5003;63436;26.334;50.194;2023-02-13T09:21:43;115;107;
72793;PMS5003;63436;26.334;50.194;2023-02-13T09:24:08;110;105;
72793;PMS5003;63436;26.334;50.194;2023-02-13T09:26:34;112;107;
72793;PMS5003;63436;26.334;50.194;2023-02-13T09:28:59;111;104;
72793;PMS5003;63436;26.334;50.194;2023-02-13T09:31:25;117;104;
72793;PMS5003;63436;26.334;50.194;2023-02-13T09:33:49;116;109;
72793;PMS5003;63436;26.334;50.194;2023-02-13T09:36:15;108;105;
72793;PMS5003;63436;26.334;50.194;2023-02-13T09:38:40;119;107;
72793;PMS5003;63436;26.334;50.194;2023-02-13T09:41:06;111;104;
72793;PMS5003;63436;26.334;50.194;2023-02-13T09:43:31;116;112;
72793;PMS5003;63436;26.334;50.194;2023-02-13T09:45:57;127;116;
72793;PMS5003;63436;26.334;50.194;2023-02-13T09:48:24;117;113;
72793;PMS5003;63436;26.334;50.194;2023-02-13T09:50:46;119;116;
72793;PMS5003;63436;26.334;50.194;2023-02-13T09:53:15;128;124;
72793;PMS5003;63436;26.334;50.194;2023-02-13T09:55:39;143;124;
72793;PMS5003;63436;26.334;50.194;2023-02-13T09:58:06;126;118;
72793;PMS5003;63436;26.334;50.194;2023-02-13T10:00:30;133;123;
72793;PMS5003;63436;26.334;50.194;2023-02-13T10:05:22;124;120;
72793;PMS5003;63436;26.334;50.194;2023-02-13T10:07:47;128;120;
72793;PMS5003;63436;26.334;50.194;2023-02-13T10:10:14;127;119;
72793;PMS5003;63436;26.334;50.194;2023-02-13T10:12:47;116;113;
72793;PMS5003;63436;26.334;50.194;2023-02-13T10:15:05;128;115;
72793;PMS5003;63436;26.334;50.194;2023-02-13T10:22:20;113;111;
72793;PMS5003;63436;26.334;50.194;2023-02-13T10:24:46;105;101;
72793;PMS5003;63436;26.334;50.194;2023-02-13T10:27:14;115;109;
72793;PMS5003;63436;26.334;50.194;2023-02-13T10:29:36;113;109;
72793;PMS5003;63436;26.334;50.194;2023-02-13T10:32:01;106;103;
72793;PMS5003;63436;26.334;50.194;2023-02-13T10:34:26;114;109;
72793;PMS5003;63436;26.334;50.194;2023-02-13T10:36:51;120;108;
72793;PMS5003;63436;26.334;50.194;2023-02-13T10:39:21;117;110;
72793;PMS5003;63436;26.334;50.194;2023-02-13T10:41:46;118;114;
72793;PMS5003;63436;26.334;50.194;2023-02-13T10:44:13;108;101;
72793;PMS5003;63436;26.334;50.194;2023-02-13T10:46:35;106;97;
72793;PMS5003;63436;26.334;50.194;2023-02-13T10:49:03;106;103;
72793;PMS5003;63436;26.334;50.194;2023-02-13T10:51:26;95;92;
72793;PMS5003;63436;26.334;50.194;2023-02-13T10:53:53;114;105;
72793;PMS5003;63436;26.334;50.194;2023-02-13T10:56:20;98;92;
72793;PMS5003;63436;26.334;50.194;2023-02-13T10:58:45;97;93;
72793;PMS5003;63436;26.334;50.194;2023-02-13T11:01:08;101;97;
72793;PMS5003;63436;26.334;50.194;2023-02-13T11:03:32;105;98;
72793;PMS5003;63436;26.334;50.194;2023-02-13T11:05:57;112;105;
72793;PMS5003;63436;26.334;50.194;2023-02-13T11:08:23;111;106;
72793;PMS5003;63436;26.334;50.194;2023-02-13T11:10:47;125;117;
72793;PMS5003;63436;26.334;50.194;2023-02-13T11:13:15;123;119;
72793;PMS5003;63436;26.334;50.194;2023-02-13T11:15:38;138;132;
72793;PMS5003;63436;26.334;50.194;2023-02-13T11:18:10;134;129;
72793;PMS5003;63436;26.334;50.194;2023-02-13T11:20:31;127;125;
72793;PMS5003;63436;26.334;50.194;2023-02-13T11:22:54;141;134;
72793;PMS5003;63436;26.334;50.194;2023-02-13T11:25:21;137;131;
72793;PMS5003;63436;26.334;50.194;2023-02-13T11:27:46;136;131;
72793;PMS5003;63436;26.334;50.194;2023-02-13T11:30:28;133;131;
72793;PMS5003;63436;26.334;50.194;2023-02-13T11:32:36;132;130;
72793;PMS5003;63436;26.334;50.194;2023-02-13T11:37:32;134;128;
72793;PMS5003;63436;26.334;50.194;2023-02-13T11:39:55;147;140;
72793;PMS5003;63436;26.334;50.194;2023-02-13T11:42:21;142;135;
72793;PMS5003;63436;26.334;50.194;2023-02-13T11:44:47;132;126;
72793;PMS5003;63436;26.334;50.194;2023-02-13T11:47:10;136;131;
72793;PMS5003;63436;26.334;50.194;2023-02-13T11:49:36;140;131;
72793;PMS5003;63436;26.334;50.194;2023-02-13T11:52:02;142;133;
72793;PMS5003;63436;26.334;50.194;2023-02-13T11:54:29;126;124;
72793;PMS5003;63436;26.334;50.194;2023-02-13T11:56:53;131;123;
72793;PMS5003;63436;26.334;50.194;2023-02-13T11:59:19;133;131;
72793;PMS5003;63436;26.334;50.194;2023-02-13T12:01:44;130;125;
72793;PMS5003;63436;26.334;50.194;2023-02-13T12:04:14;128;124;
72793;PMS5003;63436;26.334;50.194;2023-02-13T12:06:36;120;117;
72793;PMS5003;63436;26.334;50.194;2023-02-13T12:09:01;125;125;
72793;PMS5003;63436;26.334;50.194;2023-02-13T12:13:51;123;123;
72793;PMS5003;63436;26.334;50.194;2023-02-13T12:16:20;132;125;
72793;PMS5003;63436;26.334;50.194;2023-02-13T12:18:43;126;121;
72793;PMS5003;63436;26.334;50.194;2023-02-13T12:21:15;118;116;
72793;PMS5003;63436;26.334;50.194;2023-02-13T12:23:36;123;116;
72793;PMS5003;63436;26.334;50.194;2023-02-13T12:26:01;116;110;
72793;PMS5003;63436;26.334;50.194;2023-02-13T12:28:25;121;115;
72793;PMS5003;63436;26.334;50.194;2023-02-13T12:33:18;136;128;
72793;PMS5003;63436;26.334;50.194;2023-02-13T12:35:46;137;133;
72793;PMS5003;63436;26.334;50.194;2023-02-13T12:38:07;128;123;
72793;PMS5003;63436;26.334;50.194;2023-02-13T12:40:35;126;120;
72793;PMS5003;63436;26.334;50.194;2023-02-13T12:43:00;119;113;
72793;PMS5003;63436;26.334;50.194;2023-02-13T12:45:25;113;108;
72793;PMS5003;63436;26.334;50.194;2023-02-13T12:47:51;102;98;
72793;PMS5003;63436;26.334;50.194;2023-02-13T12:50:17;104;101;
72793;PMS5003;63436;26.334;50.194;2023-02-13T12:52:41;107;103;
72793;PMS5003;63436;26.334;50.194;2023-02-13T12:57:35;105;101;
72793;PMS5003;63436;26.334;50.194;2023-02-13T13:00:02;102;98;
72793;PMS5003;63436;26.334;50.194;2023-02-13T13:04:48;96;92;
72793;PMS5003;63436;26.334;50.194;2023-02-13T13:14:34;99;99;
72793;PMS5003;63436;26.334;50.194;2023-02-13T13:16:54;96;95;
72793;PMS5003;63436;26.334;50.194;2023-02-13T13:19:20;95;90;
72793;PMS5003;63436;26.334;50.194;2023-02-13T13:21:44;102;92;
72793;PMS5003;63436;26.334;50.194;2023-02-13T13:24:12;94;90;
72793;PMS5003;63436;26.334;50.194;2023-02-13T13:26:35;85;79;
72793;PMS5003;63436;26.334;50.194;2023-02-13T13:29:10;89;86;
72793;PMS5003;63436;26.334;50.194;2023-02-13T13:31:24;84;81;
72793;PMS5003;63436;26.334;50.194;2023-02-13T13:33:49;93;86;
72793;PMS5003;63436;26.334;50.194;2023-02-13T13:36:18;88;79;
72793;PMS5003;63436;26.334;50.194;2023-02-13T13:38:43;84;82;
72793;PMS5003;63436;26.334;50.194;2023-02-13T13:41:06;85;78;
72793;PMS5003;63436;26.334;50.194;2023-02-13T13:43:31;92;87;
72793;PMS5003;63436;26.334;50.194;2023-02-13T13:45:59;84;80;
72793;PMS5003;63436;26.334;50.194;2023-02-13T13:50:51;80;74;
72793;PMS5003;63436;26.334;50.194;2023-02-13T13:53:12;80;72;
72793;PMS5003;63436;26.334;50.194;2023-02-13T13:58:02;71;71;
72793;PMS5003;63436;26.334;50.194;2023-02-13T14:00:28;78;73;
72793;PMS5003;63436;26.334;50.194;2023-02-13T14:05:20;73;66;
72793;PMS5003;63436;26.334;50.194;2023-02-13T14:07:46;71;66;
72793;PMS5003;63436;26.334;50.194;2023-02-13T14:12:35;70;63;
72793;PMS5003;63436;26.334;50.194;2023-02-13T14:15:00;64;58;
72793;PMS5003;63436;26.334;50.194;2023-02-13T14:19:52;68;60;
72793;PMS5003;63436;26.334;50.194;2023-02-13T14:22:26;63;60;
72793;PMS5003;63436;26.334;50.194;2023-02-13T14:29:33;68;59;
72793;PMS5003;63436;26.334;50.194;2023-02-13T14:32:03;67;56;
72793;PMS5003;63436;26.334;50.194;2023-02-13T14:34:25;63;55;
72793;PMS5003;63436;26.334;50.194;2023-02-13T14:39:18;56;51;
72793;PMS5003;63436;26.334;50.194;2023-02-13T14:41:43;64;56;
72793;PMS5003;63436;26.334;50.194;2023-02-13T14:44:07;55;49;
72793;PMS5003;63436;26.334;50.194;2023-02-13T14:46:32;61;50;
72793;PMS5003;63436;26.334;50.194;2023-02-13T14:48:59;52;44;
72793;PMS5003;63436;26.334;50.194;2023-02-13T14:51:25;57;51;
72793;PMS5003;63436;26.334;50.194;2023-02-13T14:53:49;60;52;
72793;PMS5003;63436;26.334;50.194;2023-02-13T14:56:14;54;45;
72793;PMS5003;63436;26.334;50.194;2023-02-13T14:58:40;55;45;
72793;PMS5003;63436;26.334;50.194;2023-02-13T15:01:04;52;49;
72793;PMS5003;63436;26.334;50.194;2023-02-13T15:03:33;54;46;
72793;PMS5003;63436;26.334;50.194;2023-02-13T15:05:56;57;49;
72793;PMS5003;63436;26.334;50.194;2023-02-13T15:08:21;56;48;
72793;PMS5003;63436;26.334;50.194;2023-02-13T15:10:47;56;48;
72793;PMS5003;63436;26.334;50.194;2023-02-13T15:13:13;52;45;
72793;PMS5003;63436;26.334;50.194;2023-02-13T15:15:37;48;46;
72793;PMS5003;63436;26.334;50.194;2023-02-13T15:18:03;62;52;
72793;PMS5003;63436;26.334;50.194;2023-02-13T15:20:29;54;45;
72793;PMS5003;63436;26.334;50.194;2023-02-13T15:22:53;47;42;
72793;PMS5003;63436;26.334;50.194;2023-02-13T15:25:20;57;45;
72793;PMS5003;63436;26.334;50.194;2023-02-13T15:27:44;58;44;
72793;PMS5003;63436;26.334;50.194;2023-02-13T15:30:17;53;44;
72793;PMS5003;63436;26.334;50.194;2023-02-13T15:32:36;48;46;
72793;PMS5003;63436;26.334;50.194;2023-02-13T15:35:06;52;47;
72793;PMS5003;63436;26.334;50.194;2023-02-13T15:37:28;49;45;
72793;PMS5003;63436;26.334;50.194;2023-02-13T15:39:53;58;49;
72793;PMS5003;63436;26.334;50.194;2023-02-13T15:42:18;56;50;
72793;PMS5003;63436;26.334;50.194;2023-02-13T15:44:43;56;51;
72793;PMS5003;63436;26.334;50.194;2023-02-13T15:47:13;59;54;
72793;PMS5003;63436;26.334;50.194;2023-02-13T15:49:36;65;57;
72793;PMS5003;63436;26.334;50.194;2023-02-13T15:52:01;69;64;
72793;PMS5003;63436;26.334;50.194;2023-02-13T15:54:26;58;52;
72793;PMS5003;63436;26.334;50.194;2023-02-13T15:56:51;68;58;
72793;PMS5003;63436;26.334;50.194;2023-02-13T15:59:16;71;60;
72793;PMS5003;63436;26.334;50.194;2023-02-13T16:01:41;67;60;
72793;PMS5003;63436;26.334;50.194;2023-02-13T16:04:07;71;58;
72793;PMS5003;63436;26.334;50.194;2023-02-13T16:06:32;70;63;
72793;PMS5003;63436;26.334;50.194;2023-02-13T16:08:58;79;66;
72793;PMS5003;63436;26.334;50.194;2023-02-13T16:11:24;73;63;
72793;PMS5003;63436;26.334;50.194;2023-02-13T16:13:52;69;59;
72793;PMS5003;63436;26.334;50.194;2023-02-13T16:16:13;63;58;
72793;PMS5003;63436;26.334;50.194;2023-02-13T16:18:39;71;64;
72793;PMS5003;63436;26.334;50.194;2023-02-13T16:21:04;68;63;
72793;PMS5003;63436;26.334;50.194;2023-02-13T16:23:29;65;60;
72793;PMS5003;63436;26.334;50.194;2023-02-13T16:25:55;74;66;
72793;PMS5003;63436;26.334;50.194;2023-02-13T16:28:21;69;64;